Bermuda Spirit — C6XT2 — position and weather

sailwx.info

Track history (hours):
 
Tides and Currents Weather Stations Pressure Air Temp Water Temp Dewpoint Dewpoint Depression Visibility Wind Speed Wind Dir Waves Ship Positions

Bermuda Spirit

Last reported at 2014-Sep-30 19:33 UTC. Time now 2014-Sep-30 20:08 UTC.
Position N 44°21' E 037°55'.

Length 274 m; draft 9 m.

Type: Tanker. MMSI: 311020900.

Date/timePositionNaut miles runAvg speedWind from/ knotsBaromVisibWave heightAir tempDewpointWater temp
2014-Sep-30 19:33N 44°21' E 037°55'1 1.2
2014-Sep-30 18:33N 44°20' E 037°57'1 1.0
2014-Sep-30 17:33N 44°19' E 037°58'1 0.9
2014-Sep-30 16:33N 44°19' E 037°58'1 0.8
2014-Sep-30 15:23N 44°18' E 037°59'1 0.6
2014-Sep-30 14:33N 44°18' E 037°59'7 7.0
2014-Sep-30 13:33N 44°23' E 037°52'6 5.8
2014-Sep-30 12:33N 44°27' E 037°47'1 0.6
2014-Sep-30 11:33N 44°27' E 037°47'1 0.7
2014-Sep-30 10:33N 44°26' E 037°48'1 0.8
2014-Sep-30 09:33N 44°26' E 037°49'1 0.7
2014-Sep-30 08:33N 44°25' E 037°50'1 0.7
2014-Sep-30 07:33N 44°25' E 037°51'1 0.7
2014-Sep-30 06:33N 44°25' E 037°51'1 0.7
2014-Sep-30 05:33N 44°25' E 037°52'1 0.9
2014-Sep-30 04:33N 44°24' E 037°52'8 8.2
2014-Sep-30 03:33N 44°18' E 037°44'11 4.6
2014-Sep-30 01:12N 44°11' E 037°33'0 0.6
2014-Sep-30 00:28N 44°11' E 037°33'1 1.0
2014-Sep-29 23:06N 44°12' E 037°34'2 1.2
2014-Sep-29 21:21N 44°14' E 037°36'1 1.1
2014-Sep-29 20:29N 44°15' E 037°36'1 1.3
2014-Sep-29 19:33N 44°16' E 037°37'1 1.4
2014-Sep-29 18:32N 44°17' E 037°38'1 1.2
2014-Sep-29 17:30N 44°18' E 037°39'1 0.9
2014-Sep-29 16:31N 44°19' E 037°40'1 0.8
2014-Sep-29 15:30N 44°19' E 037°41'1 0.8
2014-Sep-29 14:33N 44°20' E 037°42'1 0.8
2014-Sep-29 13:33N 44°20' E 037°43'1 0.8
2014-Sep-29 12:32N 44°20' E 037°44'1 1.0
2014-Sep-29 11:33N 44°20' E 037°45'1 1.3
2014-Sep-29 10:33N 44°21' E 037°47'2 1.5
2014-Sep-29 09:33N 44°21' E 037°49'2 1.6
2014-Sep-29 08:33N 44°22' E 037°51'2 2.0
2014-Sep-29 07:33N 44°22' E 037°48'7 6.9
2014-Sep-29 06:33N 44°17' E 037°43'8 7.4
2014-Sep-29 05:31N 44°09' E 037°40'8 7.2
2014-Sep-29 04:27N 44°02' E 037°36'15 1.2
2014-Sep-28 15:23N 44°17' E 037°31'2 1.7
2014-Sep-28 14:24N 44°18' E 037°33'2 1.9
2014-Sep-28 13:16N 44°20' E 037°35'2 2.2
2014-Sep-28 12:33N 44°21' E 037°36'2 2.1
2014-Sep-28 11:33N 44°23' E 037°37'2 1.8
2014-Sep-28 10:33N 44°25' E 037°36'9 9.1
2014-Sep-28 09:33N 44°23' E 037°23'10 9.7
2014-Sep-28 08:33N 44°18' E 037°11'37110.0
2014-Sep-26 19:22N 41°30' E 029°40'810.0
2014-Sep-26 18:33N 41°26' E 029°30'1110.0
2014-Sep-26 17:26N 41°21' E 029°17'9 9.3
2014-Sep-26 16:31N 41°15' E 029°09'18 9.3
2014-Sep-26 14:33N 40°59' E 028°59'7 7.0
2014-Sep-26 13:33N 40°52' E 028°56'5 5.3
2014-Sep-26 12:33N 40°47' E 028°56'0 0.4
2014-Sep-26 11:33N 40°47' E 028°57'0 0.4
2014-Sep-26 10:33N 40°47' E 028°57'0 0.4
2014-Sep-26 09:33N 40°47' E 028°57'0 0.4
2014-Sep-26 08:32N 40°47' E 028°58'1 0.6
2014-Sep-26 07:33N 40°48' E 028°57'2 2.1
2014-Sep-26 06:33N 40°47' E 028°54'2 2.2
2014-Sep-26 05:33N 40°46' E 028°52'2 1.6
2014-Sep-26 04:33N 40°46' E 028°50'1 0.7
2014-Sep-26 03:30N 40°47' E 028°49'1 0.9
2014-Sep-26 02:33N 40°48' E 028°49'2 2.2
2014-Sep-26 01:33N 40°50' E 028°51'1 0.8
2014-Sep-26 00:33N 40°49' E 028°50'7 6.9
2014-Sep-25 23:33N 40°49' E 028°41'1212.1
2014-Sep-25 22:31N 40°49' E 028°24'25210.1
2014-Sep-24 21:31N 37°49' E 024°35'1212.6
2014-Sep-24 20:33N 37°38' E 024°32'1412.4
2014-Sep-24 19:25N 37°27' E 024°19'1212.0
2014-Sep-24 18:27N 37°16' E 024°15'1212.1
2014-Sep-24 17:26N 37°04' E 024°12'1011.5
2014-Sep-24 16:33N 36°54' E 024°10'1211.7
2014-Sep-24 15:33N 36°46' E 023°60'1211.7
2014-Sep-24 14:33N 36°37' E 023°50'  
Track history (hours):
 
Tides and Currents Weather Stations Pressure Air Temp Water Temp Dewpoint Dewpoint Depression Visibility Wind Speed Wind Dir Waves Ship Positions

Bermuda Spirit

Last reported at 2014-Sep-30 19:33 UTC. Time now 2014-Sep-30 20:08 UTC.
Position N 44°21' E 037°55'.

Length 274 m; draft 9 m.

Type: Tanker. MMSI: 311020900.

Date/timePositionNaut miles runAvg speedWind from/ knotsBaromVisibWave heightAir tempDewpointWater temp
2014-Sep-30 19:33N 44°21' E 037°55'1 1.2
2014-Sep-30 18:33N 44°20' E 037°57'1 1.0
2014-Sep-30 17:33N 44°19' E 037°58'1 0.9
2014-Sep-30 16:33N 44°19' E 037°58'1 0.8
2014-Sep-30 15:23N 44°18' E 037°59'1 0.6
2014-Sep-30 14:33N 44°18' E 037°59'7 7.0
2014-Sep-30 13:33N 44°23' E 037°52'6 5.8
2014-Sep-30 12:33N 44°27' E 037°47'1 0.6
2014-Sep-30 11:33N 44°27' E 037°47'1 0.7
2014-Sep-30 10:33N 44°26' E 037°48'1 0.8
2014-Sep-30 09:33N 44°26' E 037°49'1 0.7
2014-Sep-30 08:33N 44°25' E 037°50'1 0.7
2014-Sep-30 07:33N 44°25' E 037°51'1 0.7
2014-Sep-30 06:33N 44°25' E 037°51'1 0.7
2014-Sep-30 05:33N 44°25' E 037°52'1 0.9
2014-Sep-30 04:33N 44°24' E 037°52'8 8.2
2014-Sep-30 03:33N 44°18' E 037°44'11 4.6
2014-Sep-30 01:12N 44°11' E 037°33'0 0.6
2014-Sep-30 00:28N 44°11' E 037°33'1 1.0
2014-Sep-29 23:06N 44°12' E 037°34'2 1.2
2014-Sep-29 21:21N 44°14' E 037°36'1 1.1
2014-Sep-29 20:29N 44°15' E 037°36'1 1.3
2014-Sep-29 19:33N 44°16' E 037°37'1 1.4
2014-Sep-29 18:32N 44°17' E 037°38'1 1.2
2014-Sep-29 17:30N 44°18' E 037°39'1 0.9
2014-Sep-29 16:31N 44°19' E 037°40'1 0.8
2014-Sep-29 15:30N 44°19' E 037°41'1 0.8
2014-Sep-29 14:33N 44°20' E 037°42'1 0.8
2014-Sep-29 13:33N 44°20' E 037°43'1 0.8
2014-Sep-29 12:32N 44°20' E 037°44'1 1.0
2014-Sep-29 11:33N 44°20' E 037°45'1 1.3
2014-Sep-29 10:33N 44°21' E 037°47'2 1.5
2014-Sep-29 09:33N 44°21' E 037°49'2 1.6
2014-Sep-29 08:33N 44°22' E 037°51'2 2.0
2014-Sep-29 07:33N 44°22' E 037°48'7 6.9
2014-Sep-29 06:33N 44°17' E 037°43'8 7.4
2014-Sep-29 05:31N 44°09' E 037°40'8 7.2
2014-Sep-29 04:27N 44°02' E 037°36'15 1.2
2014-Sep-28 15:23N 44°17' E 037°31'2 1.7
2014-Sep-28 14:24N 44°18' E 037°33'2 1.9
2014-Sep-28 13:16N 44°20' E 037°35'2 2.2
2014-Sep-28 12:33N 44°21' E 037°36'2 2.1
2014-Sep-28 11:33N 44°23' E 037°37'2 1.8
2014-Sep-28 10:33N 44°25' E 037°36'9 9.1
2014-Sep-28 09:33N 44°23' E 037°23'10 9.7
2014-Sep-28 08:33N 44°18' E 037°11'37110.0
2014-Sep-26 19:22N 41°30' E 029°40'810.0
2014-Sep-26 18:33N 41°26' E 029°30'1110.0
2014-Sep-26 17:26N 41°21' E 029°17'9 9.3
2014-Sep-26 16:31N 41°15' E 029°09'18 9.3
2014-Sep-26 14:33N 40°59' E 028°59'7 7.0
2014-Sep-26 13:33N 40°52' E 028°56'5 5.3
2014-Sep-26 12:33N 40°47' E 028°56'0 0.4
2014-Sep-26 11:33N 40°47' E 028°57'0 0.4
2014-Sep-26 10:33N 40°47' E 028°57'0 0.4
2014-Sep-26 09:33N 40°47' E 028°57'0 0.4
2014-Sep-26 08:32N 40°47' E 028°58'1 0.6
2014-Sep-26 07:33N 40°48' E 028°57'2 2.1
2014-Sep-26 06:33N 40°47' E 028°54'2 2.2
2014-Sep-26 05:33N 40°46' E 028°52'2 1.6
2014-Sep-26 04:33N 40°46' E 028°50'1 0.7
2014-Sep-26 03:30N 40°47' E 028°49'1 0.9
2014-Sep-26 02:33N 40°48' E 028°49'2 2.2
2014-Sep-26 01:33N 40°50' E 028°51'1 0.8
2014-Sep-26 00:33N 40°49' E 028°50'7 6.9
2014-Sep-25 23:33N 40°49' E 028°41'1212.1
2014-Sep-25 22:31N 40°49' E 028°24'25210.1
2014-Sep-24 21:31N 37°49' E 024°35'1212.6
2014-Sep-24 20:33N 37°38' E 024°32'1412.4
2014-Sep-24 19:25N 37°27' E 024°19'1212.0
2014-Sep-24 18:27N 37°16' E 024°15'1212.1
2014-Sep-24 17:26N 37°04' E 024°12'1011.5
2014-Sep-24 16:33N 36°54' E 024°10'1211.7
2014-Sep-24 15:33N 36°46' E 023°60'1211.7
2014-Sep-24 14:33N 36°37' E 023°50'  

Dump ship's entire track history